sensor_id;sensor_type;location;lat;lon;timestamp;P1;durP1;ratioP1;P2;durP2;ratioP2
32200;SDS011;18701;45.588;5.288;2023-01-06T00:01:16;12.45;;;9.27;;
32200;SDS011;18701;45.588;5.288;2023-01-06T00:03:42;14.45;;;9.48;;
32200;SDS011;18701;45.588;5.288;2023-01-06T00:06:12;13.45;;;9.80;;
32200;SDS011;18701;45.588;5.288;2023-01-06T00:08:39;18.30;;;10.35;;
32200;SDS011;18701;45.588;5.288;2023-01-06T00:11:05;13.40;;;9.75;;
32200;SDS011;18701;45.588;5.288;2023-01-06T00:13:31;15.75;;;8.82;;
32200;SDS011;18701;45.588;5.288;2023-01-06T00:15:57;13.13;;;7.93;;
32200;SDS011;18701;45.588;5.288;2023-01-06T00:18:27;10.75;;;8.38;;
32200;SDS011;18701;45.588;5.288;2023-01-06T00:20:52;10.85;;;7.35;;
32200;SDS011;18701;45.588;5.288;2023-01-06T00:23:18;7.45;;;5.75;;
32200;SDS011;18701;45.588;5.288;2023-01-06T00:25:49;5.43;;;3.70;;
32200;SDS011;18701;45.588;5.288;2023-01-06T00:28:15;8.90;;;3.95;;
32200;SDS011;18701;45.588;5.288;2023-01-06T00:30:41;7.40;;;4.43;;
32200;SDS011;18701;45.588;5.288;2023-01-06T00:33:07;5.95;;;4.40;;
32200;SDS011;18701;45.588;5.288;2023-01-06T00:35:33;5.18;;;3.05;;
32200;SDS011;18701;45.588;5.288;2023-01-06T00:37:58;3.78;;;2.70;;
32200;SDS011;18701;45.588;5.288;2023-01-06T00:40:24;4.53;;;2.28;;
32200;SDS011;18701;45.588;5.288;2023-01-06T00:42:50;2.15;;;1.55;;
32200;SDS011;18701;45.588;5.288;2023-01-06T00:45:15;4.05;;;2.22;;
32200;SDS011;18701;45.588;5.288;2023-01-06T00:47:41;6.10;;;1.95;;
32200;SDS011;18701;45.588;5.288;2023-01-06T00:50:07;3.35;;;1.83;;
32200;SDS011;18701;45.588;5.288;2023-01-06T00:52:33;1.77;;;1.55;;
32200;SDS011;18701;45.588;5.288;2023-01-06T00:54:59;1.80;;;1.40;;
32200;SDS011;18701;45.588;5.288;2023-01-06T00:57:24;3.80;;;1.45;;
32200;SDS011;18701;45.588;5.288;2023-01-06T00:59:50;1.40;;;1.17;;
32200;SDS011;18701;45.588;5.288;2023-01-06T01:02:16;2.53;;;1.05;;
32200;SDS011;18701;45.588;5.288;2023-01-06T01:04:41;1.80;;;1.45;;
32200;SDS011;18701;45.588;5.288;2023-01-06T01:07:07;2.75;;;1.73;;
32200;SDS011;18701;45.588;5.288;2023-01-06T01:09:33;3.92;;;1.75;;
32200;SDS011;18701;45.588;5.288;2023-01-06T01:11:59;3.63;;;2.30;;
32200;SDS011;18701;45.588;5.288;2023-01-06T01:14:43;5.05;;;3.17;;
32200;SDS011;18701;45.588;5.288;2023-01-06T01:17:16;4.55;;;3.05;;
32200;SDS011;18701;45.588;5.288;2023-01-06T01:19:50;4.85;;;2.78;;
32200;SDS011;18701;45.588;5.288;2023-01-06T01:22:18;7.30;;;2.53;;
32200;SDS011;18701;45.588;5.288;2023-01-06T01:24:44;3.35;;;2.75;;
32200;SDS011;18701;45.588;5.288;2023-01-06T01:27:10;4.28;;;2.30;;
32200;SDS011;18701;45.588;5.288;2023-01-06T01:29:35;3.13;;;1.58;;
32200;SDS011;18701;45.588;5.288;2023-01-06T01:32:01;2.13;;;1.63;;
32200;SDS011;18701;45.588;5.288;2023-01-06T01:34:27;4.50;;;2.03;;
32200;SDS011;18701;45.588;5.288;2023-01-06T01:36:53;3.70;;;1.85;;
32200;SDS011;18701;45.588;5.288;2023-01-06T01:39:20;6.53;;;2.05;;
32200;SDS011;18701;45.588;5.288;2023-01-06T01:41:48;3.22;;;2.40;;
32200;SDS011;18701;45.588;5.288;2023-01-06T01:47:27;2.28;;;2.00;;
32200;SDS011;18701;45.588;5.288;2023-01-06T01:52:39;2.65;;;2.45;;
32200;SDS011;18701;45.588;5.288;2023-01-06T01:55:07;2.50;;;2.30;;
32200;SDS011;18701;45.588;5.288;2023-01-06T01:57:37;2.80;;;2.25;;
32200;SDS011;18701;45.588;5.288;2023-01-06T02:00:11;5.72;;;2.67;;
32200;SDS011;18701;45.588;5.288;2023-01-06T02:02:37;7.25;;;2.75;;
32200;SDS011;18701;45.588;5.288;2023-01-06T02:05:03;4.15;;;2.45;;
32200;SDS011;18701;45.588;5.288;2023-01-06T02:07:30;4.40;;;2.58;;
32200;SDS011;18701;45.588;5.288;2023-01-06T02:12:39;5.97;;;2.35;;
32200;SDS011;18701;45.588;5.288;2023-01-06T02:15:15;7.60;;;2.90;;
32200;SDS011;18701;45.588;5.288;2023-01-06T02:40:15;6.93;;;4.25;;
32200;SDS011;18701;45.588;5.288;2023-01-06T02:43:10;10.32;;;4.97;;
32200;SDS011;18701;45.588;5.288;2023-01-06T02:46:06;6.90;;;4.65;;
32200;SDS011;18701;45.588;5.288;2023-01-06T02:51:22;5.85;;;4.63;;
32200;SDS011;18701;45.588;5.288;2023-01-06T02:56:21;6.68;;;4.93;;
32200;SDS011;18701;45.588;5.288;2023-01-06T02:58:52;10.52;;;4.85;;
32200;SDS011;18701;45.588;5.288;2023-01-06T03:01:30;9.03;;;4.53;;
32200;SDS011;18701;45.588;5.288;2023-01-06T03:04:03;6.47;;;4.78;;
32200;SDS011;18701;45.588;5.288;2023-01-06T03:06:33;6.70;;;4.78;;
32200;SDS011;18701;45.588;5.288;2023-01-06T03:09:00;6.65;;;4.28;;
32200;SDS011;18701;45.588;5.288;2023-01-06T03:11:29;7.07;;;5.45;;
32200;SDS011;18701;45.588;5.288;2023-01-06T03:14:20;5.57;;;4.80;;
32200;SDS011;18701;45.588;5.288;2023-01-06T03:16:47;9.90;;;4.82;;
32200;SDS011;18701;45.588;5.288;2023-01-06T03:19:13;6.40;;;4.63;;
32200;SDS011;18701;45.588;5.288;2023-01-06T03:21:40;6.78;;;5.28;;
32200;SDS011;18701;45.588;5.288;2023-01-06T03:24:08;7.43;;;4.93;;
32200;SDS011;18701;45.588;5.288;2023-01-06T03:26:34;10.52;;;5.63;;
32200;SDS011;18701;45.588;5.288;2023-01-06T03:29:01;9.35;;;5.82;;
32200;SDS011;18701;45.588;5.288;2023-01-06T03:31:56;9.93;;;6.43;;
32200;SDS011;18701;45.588;5.288;2023-01-06T03:34:42;9.88;;;6.40;;
32200;SDS011;18701;45.588;5.288;2023-01-06T03:37:53;8.18;;;6.28;;
32200;SDS011;18701;45.588;5.288;2023-01-06T03:43:28;9.05;;;6.55;;
32200;SDS011;18701;45.588;5.288;2023-01-06T03:46:24;9.77;;;6.40;;
32200;SDS011;18701;45.588;5.288;2023-01-06T03:52:08;12.57;;;6.22;;
32200;SDS011;18701;45.588;5.288;2023-01-06T03:54:52;8.63;;;5.57;;
32200;SDS011;18701;45.588;5.288;2023-01-06T03:57:35;10.25;;;5.72;;
32200;SDS011;18701;45.588;5.288;2023-01-06T04:00:07;8.10;;;5.75;;
32200;SDS011;18701;45.588;5.288;2023-01-06T04:02:40;8.77;;;5.60;;
32200;SDS011;18701;45.588;5.288;2023-01-06T04:07:32;10.52;;;6.05;;
32200;SDS011;18701;45.588;5.288;2023-01-06T04:09:58;10.20;;;6.40;;
32200;SDS011;18701;45.588;5.288;2023-01-06T04:12:23;11.77;;;6.82;;
32200;SDS011;18701;45.588;5.288;2023-01-06T04:15:05;8.80;;;6.35;;
32200;SDS011;18701;45.588;5.288;2023-01-06T04:17:42;9.52;;;6.35;;
32200;SDS011;18701;45.588;5.288;2023-01-06T04:20:09;7.22;;;5.75;;
32200;SDS011;18701;45.588;5.288;2023-01-06T04:23:02;11.63;;;6.10;;
32200;SDS011;18701;45.588;5.288;2023-01-06T04:25:27;7.38;;;4.82;;
32200;SDS011;18701;45.588;5.288;2023-01-06T04:27:53;8.00;;;5.10;;
32200;SDS011;18701;45.588;5.288;2023-01-06T04:30:19;8.27;;;4.68;;
32200;SDS011;18701;45.588;5.288;2023-01-06T04:32:44;7.82;;;4.72;;
32200;SDS011;18701;45.588;5.288;2023-01-06T04:35:10;4.85;;;3.58;;
32200;SDS011;18701;45.588;5.288;2023-01-06T04:37:36;4.82;;;2.65;;
32200;SDS011;18701;45.588;5.288;2023-01-06T04:40:02;3.85;;;3.47;;
32200;SDS011;18701;45.588;5.288;2023-01-06T04:42:28;7.38;;;3.40;;
32200;SDS011;18701;45.588;5.288;2023-01-06T04:45:13;7.93;;;2.90;;
32200;SDS011;18701;45.588;5.288;2023-01-06T04:47:39;3.38;;;2.67;;
32200;SDS011;18701;45.588;5.288;2023-01-06T04:50:05;5.28;;;3.40;;
32200;SDS011;18701;45.588;5.288;2023-01-06T04:52:31;7.07;;;2.92;;
32200;SDS011;18701;45.588;5.288;2023-01-06T04:54:56;3.40;;;3.00;;
32200;SDS011;18701;45.588;5.288;2023-01-06T04:57:22;2.97;;;2.67;;
32200;SDS011;18701;45.588;5.288;2023-01-06T04:59:48;3.67;;;3.03;;
32200;SDS011;18701;45.588;5.288;2023-01-06T05:02:13;7.13;;;3.42;;
32200;SDS011;18701;45.588;5.288;2023-01-06T05:04:39;7.65;;;3.45;;
32200;SDS011;18701;45.588;5.288;2023-01-06T05:07:04;5.25;;;3.78;;
32200;SDS011;18701;45.588;5.288;2023-01-06T05:09:30;6.28;;;4.22;;
32200;SDS011;18701;45.588;5.288;2023-01-06T05:11:55;6.03;;;4.32;;
32200;SDS011;18701;45.588;5.288;2023-01-06T05:14:21;7.57;;;4.95;;
32200;SDS011;18701;45.588;5.288;2023-01-06T05:16:47;7.57;;;5.25;;
32200;SDS011;18701;45.588;5.288;2023-01-06T05:19:14;8.15;;;5.78;;
32200;SDS011;18701;45.588;5.288;2023-01-06T05:21:40;6.82;;;5.32;;
32200;SDS011;18701;45.588;5.288;2023-01-06T05:24:07;9.65;;;5.85;;
32200;SDS011;18701;45.588;5.288;2023-01-06T05:26:33;6.80;;;5.20;;
32200;SDS011;18701;45.588;5.288;2023-01-06T05:28:59;5.90;;;4.68;;
32200;SDS011;18701;45.588;5.288;2023-01-06T05:31:25;6.63;;;5.13;;
32200;SDS011;18701;45.588;5.288;2023-01-06T05:33:50;6.78;;;5.03;;
32200;SDS011;18701;45.588;5.288;2023-01-06T05:36:16;8.63;;;5.18;;
32200;SDS011;18701;45.588;5.288;2023-01-06T05:38:42;8.25;;;5.05;;
32200;SDS011;18701;45.588;5.288;2023-01-06T05:41:08;6.15;;;4.60;;
32200;SDS011;18701;45.588;5.288;2023-01-06T05:43:35;8.95;;;6.45;;
32200;SDS011;18701;45.588;5.288;2023-01-06T05:46:05;11.23;;;5.65;;
32200;SDS011;18701;45.588;5.288;2023-01-06T05:48:32;8.88;;;5.05;;
32200;SDS011;18701;45.588;5.288;2023-01-06T05:51:01;8.13;;;5.43;;
32200;SDS011;18701;45.588;5.288;2023-01-06T05:53:31;7.25;;;4.70;;
32200;SDS011;18701;45.588;5.288;2023-01-06T05:56:01;5.88;;;3.95;;
32200;SDS011;18701;45.588;5.288;2023-01-06T05:58:28;7.95;;;4.15;;
32200;SDS011;18701;45.588;5.288;2023-01-06T06:00:54;7.20;;;3.15;;
32200;SDS011;18701;45.588;5.288;2023-01-06T06:03:20;5.97;;;2.50;;
32200;SDS011;18701;45.588;5.288;2023-01-06T06:05:45;3.05;;;2.40;;
32200;SDS011;18701;45.588;5.288;2023-01-06T06:08:11;2.78;;;2.40;;
32200;SDS011;18701;45.588;5.288;2023-01-06T06:10:37;3.10;;;2.78;;
32200;SDS011;18701;45.588;5.288;2023-01-06T06:13:02;3.50;;;3.20;;
32200;SDS011;18701;45.588;5.288;2023-01-06T06:15:28;3.85;;;3.28;;
32200;SDS011;18701;45.588;5.288;2023-01-06T06:17:53;3.25;;;2.75;;
32200;SDS011;18701;45.588;5.288;2023-01-06T06:20:19;5.15;;;3.00;;
32200;SDS011;18701;45.588;5.288;2023-01-06T06:22:45;3.67;;;2.55;;
32200;SDS011;18701;45.588;5.288;2023-01-06T06:25:10;5.13;;;3.05;;
32200;SDS011;18701;45.588;5.288;2023-01-06T06:27:36;8.85;;;2.83;;
32200;SDS011;18701;45.588;5.288;2023-01-06T06:30:02;3.45;;;3.15;;
32200;SDS011;18701;45.588;5.288;2023-01-06T06:32:30;4.55;;;3.20;;
32200;SDS011;18701;45.588;5.288;2023-01-06T06:34:55;4.22;;;2.97;;
32200;SDS011;18701;45.588;5.288;2023-01-06T06:37:21;5.60;;;3.45;;
32200;SDS011;18701;45.588;5.288;2023-01-06T06:39:47;4.05;;;3.13;;
32200;SDS011;18701;45.588;5.288;2023-01-06T06:42:12;6.53;;;4.07;;
32200;SDS011;18701;45.588;5.288;2023-01-06T06:44:38;7.05;;;4.15;;
32200;SDS011;18701;45.588;5.288;2023-01-06T06:47:03;4.28;;;3.60;;
32200;SDS011;18701;45.588;5.288;2023-01-06T06:49:29;4.03;;;3.42;;
32200;SDS011;18701;45.588;5.288;2023-01-06T06:51:55;3.17;;;2.88;;
32200;SDS011;18701;45.588;5.288;2023-01-06T06:54:20;7.28;;;2.97;;
32200;SDS011;18701;45.588;5.288;2023-01-06T06:56:46;4.32;;;3.45;;
32200;SDS011;18701;45.588;5.288;2023-01-06T06:59:11;4.97;;;3.40;;
32200;SDS011;18701;45.588;5.288;2023-01-06T07:01:37;6.05;;;4.38;;
32200;SDS011;18701;45.588;5.288;2023-01-06T07:04:03;6.22;;;3.95;;
32200;SDS011;18701;45.588;5.288;2023-01-06T07:06:28;6.20;;;4.70;;
32200;SDS011;18701;45.588;5.288;2023-01-06T07:08:55;5.35;;;4.10;;
32200;SDS011;18701;45.588;5.288;2023-01-06T07:11:21;5.20;;;3.17;;
32200;SDS011;18701;45.588;5.288;2023-01-06T07:13:47;4.30;;;3.50;;
32200;SDS011;18701;45.588;5.288;2023-01-06T07:16:13;6.07;;;3.17;;
32200;SDS011;18701;45.588;5.288;2023-01-06T07:18:39;4.68;;;2.92;;
32200;SDS011;18701;45.588;5.288;2023-01-06T07:21:05;3.63;;;3.28;;
32200;SDS011;18701;45.588;5.288;2023-01-06T07:23:31;8.27;;;3.28;;
32200;SDS011;18701;45.588;5.288;2023-01-06T07:25:58;7.03;;;3.85;;
32200;SDS011;18701;45.588;5.288;2023-01-06T07:28:25;5.95;;;2.88;;
32200;SDS011;18701;45.588;5.288;2023-01-06T07:30:53;5.90;;;4.18;;
32200;SDS011;18701;45.588;5.288;2023-01-06T07:33:19;3.95;;;3.35;;
32200;SDS011;18701;45.588;5.288;2023-01-06T07:35:45;6.97;;;3.92;;
32200;SDS011;18701;45.588;5.288;2023-01-06T07:38:11;5.88;;;4.32;;
32200;SDS011;18701;45.588;5.288;2023-01-06T07:40:37;9.82;;;5.30;;
32200;SDS011;18701;45.588;5.288;2023-01-06T07:43:03;7.25;;;5.53;;
32200;SDS011;18701;45.588;5.288;2023-01-06T07:45:30;10.27;;;6.43;;
32200;SDS011;18701;45.588;5.288;2023-01-06T07:47:56;10.43;;;5.60;;
32200;SDS011;18701;45.588;5.288;2023-01-06T07:50:22;7.15;;;5.28;;
32200;SDS011;18701;45.588;5.288;2023-01-06T07:52:50;10.57;;;6.10;;
32200;SDS011;18701;45.588;5.288;2023-01-06T07:55:16;9.05;;;5.50;;
32200;SDS011;18701;45.588;5.288;2023-01-06T07:57:41;11.10;;;6.40;;
32200;SDS011;18701;45.588;5.288;2023-01-06T08:00:07;8.98;;;6.00;;
32200;SDS011;18701;45.588;5.288;2023-01-06T08:02:33;9.43;;;6.13;;
32200;SDS011;18701;45.588;5.288;2023-01-06T08:04:59;8.88;;;5.85;;
32200;SDS011;18701;45.588;5.288;2023-01-06T08:07:25;7.82;;;6.13;;
32200;SDS011;18701;45.588;5.288;2023-01-06T08:09:50;6.50;;;5.10;;
32200;SDS011;18701;45.588;5.288;2023-01-06T08:12:16;6.88;;;5.22;;
32200;SDS011;18701;45.588;5.288;2023-01-06T08:14:42;8.18;;;6.45;;
32200;SDS011;18701;45.588;5.288;2023-01-06T08:17:08;7.78;;;5.60;;
32200;SDS011;18701;45.588;5.288;2023-01-06T08:19:33;8.57;;;5.47;;
32200;SDS011;18701;45.588;5.288;2023-01-06T08:21:59;8.23;;;5.85;;
32200;SDS011;18701;45.588;5.288;2023-01-06T08:24:25;8.68;;;6.07;;
32200;SDS011;18701;45.588;5.288;2023-01-06T08:26:51;8.13;;;5.90;;
32200;SDS011;18701;45.588;5.288;2023-01-06T08:29:16;10.35;;;5.55;;
32200;SDS011;18701;45.588;5.288;2023-01-06T08:31:42;9.35;;;5.88;;
32200;SDS011;18701;45.588;5.288;2023-01-06T08:34:07;7.93;;;6.68;;
32200;SDS011;18701;45.588;5.288;2023-01-06T08:36:35;10.23;;;7.95;;
32200;SDS011;18701;45.588;5.288;2023-01-06T08:39:01;7.38;;;6.50;;
32200;SDS011;18701;45.588;5.288;2023-01-06T08:41:27;8.25;;;6.85;;
32200;SDS011;18701;45.588;5.288;2023-01-06T08:43:53;12.90;;;9.57;;
32200;SDS011;18701;45.588;5.288;2023-01-06T08:46:19;15.15;;;9.70;;
32200;SDS011;18701;45.588;5.288;2023-01-06T08:48:45;16.15;;;10.90;;
32200;SDS011;18701;45.588;5.288;2023-01-06T08:51:12;14.52;;;10.57;;
32200;SDS011;18701;45.588;5.288;2023-01-06T08:53:40;14.60;;;10.23;;
32200;SDS011;18701;45.588;5.288;2023-01-06T08:56:14;14.18;;;10.43;;
32200;SDS011;18701;45.588;5.288;2023-01-06T08:58:51;16.02;;;11.18;;
32200;SDS011;18701;45.588;5.288;2023-01-06T09:01:23;19.17;;;12.30;;
32200;SDS011;18701;45.588;5.288;2023-01-06T09:03:50;17.05;;;12.02;;
32200;SDS011;18701;45.588;5.288;2023-01-06T09:06:17;14.82;;;11.13;;
32200;SDS011;18701;45.588;5.288;2023-01-06T09:08:43;16.90;;;11.80;;
32200;SDS011;18701;45.588;5.288;2023-01-06T09:11:09;16.17;;;11.25;;
32200;SDS011;18701;45.588;5.288;2023-01-06T09:13:36;15.95;;;11.73;;
32200;SDS011;18701;45.588;5.288;2023-01-06T09:16:05;16.38;;;11.75;;
32200;SDS011;18701;45.588;5.288;2023-01-06T09:18:32;15.60;;;11.32;;
32200;SDS011;18701;45.588;5.288;2023-01-06T09:20:58;17.33;;;11.40;;
32200;SDS011;18701;45.588;5.288;2023-01-06T09:23:24;15.20;;;11.13;;
32200;SDS011;18701;45.588;5.288;2023-01-06T09:25:49;15.40;;;10.75;;
32200;SDS011;18701;45.588;5.288;2023-01-06T09:28:15;15.95;;;10.55;;
32200;SDS011;18701;45.588;5.288;2023-01-06T09:30:41;14.15;;;10.60;;
32200;SDS011;18701;45.588;5.288;2023-01-06T09:33:06;17.58;;;10.13;;
32200;SDS011;18701;45.588;5.288;2023-01-06T09:35:32;12.52;;;9.25;;
32200;SDS011;18701;45.588;5.288;2023-01-06T09:37:58;11.88;;;9.07;;
32200;SDS011;18701;45.588;5.288;2023-01-06T09:40:48;14.43;;;10.48;;
32200;SDS011;18701;45.588;5.288;2023-01-06T09:43:13;13.23;;;10.07;;
32200;SDS011;18701;45.588;5.288;2023-01-06T09:45:50;14.02;;;9.85;;
32200;SDS011;18701;45.588;5.288;2023-01-06T09:48:26;14.80;;;10.40;;
32200;SDS011;18701;45.588;5.288;2023-01-06T09:50:59;15.52;;;9.55;;
32200;SDS011;18701;45.588;5.288;2023-01-06T09:53:43;14.05;;;9.90;;
32200;SDS011;18701;45.588;5.288;2023-01-06T09:56:14;12.55;;;9.35;;
32200;SDS011;18701;45.588;5.288;2023-01-06T09:58:46;16.13;;;8.98;;
32200;SDS011;18701;45.588;5.288;2023-01-06T10:01:18;13.75;;;9.50;;
32200;SDS011;18701;45.588;5.288;2023-01-06T10:03:51;11.05;;;9.07;;
32200;SDS011;18701;45.588;5.288;2023-01-06T10:14:11;13.93;;;9.20;;
32200;SDS011;18701;45.588;5.288;2023-01-06T10:25:20;13.07;;;8.80;;
32200;SDS011;18701;45.588;5.288;2023-01-06T10:27:57;11.05;;;9.02;;
32200;SDS011;18701;45.588;5.288;2023-01-06T10:30:36;10.80;;;8.25;;
32200;SDS011;18701;45.588;5.288;2023-01-06T10:33:07;16.05;;;9.00;;
32200;SDS011;18701;45.588;5.288;2023-01-06T10:35:45;11.57;;;8.45;;
32200;SDS011;18701;45.588;5.288;2023-01-06T10:38:11;9.65;;;7.82;;
32200;SDS011;18701;45.588;5.288;2023-01-06T10:40:37;12.98;;;7.40;;
32200;SDS011;18701;45.588;5.288;2023-01-06T10:43:04;14.65;;;8.02;;
32200;SDS011;18701;45.588;5.288;2023-01-06T10:45:41;9.32;;;5.25;;
32200;SDS011;18701;45.588;5.288;2023-01-06T10:48:09;8.13;;;6.70;;
32200;SDS011;18701;45.588;5.288;2023-01-06T10:50:37;8.52;;;6.32;;
32200;SDS011;18701;45.588;5.288;2023-01-06T10:53:03;5.60;;;4.90;;
32200;SDS011;18701;45.588;5.288;2023-01-06T11:00:55;7.45;;;6.03;;
32200;SDS011;18701;45.588;5.288;2023-01-06T11:03:22;8.93;;;6.40;;
32200;SDS011;18701;45.588;5.288;2023-01-06T11:05:57;7.53;;;4.80;;
32200;SDS011;18701;45.588;5.288;2023-01-06T11:08:29;10.38;;;4.63;;
32200;SDS011;18701;45.588;5.288;2023-01-06T11:10:55;10.40;;;5.35;;
32200;SDS011;18701;45.588;5.288;2023-01-06T11:13:31;7.53;;;5.15;;
32200;SDS011;18701;45.588;5.288;2023-01-06T11:16:01;6.43;;;5.47;;
32200;SDS011;18701;45.588;5.288;2023-01-06T11:18:33;6.93;;;5.55;;
32200;SDS011;18701;45.588;5.288;2023-01-06T11:21:20;5.45;;;4.90;;
32200;SDS011;18701;45.588;5.288;2023-01-06T11:23:47;5.53;;;4.93;;
32200;SDS011;18701;45.588;5.288;2023-01-06T11:26:14;9.05;;;5.07;;
32200;SDS011;18701;45.588;5.288;2023-01-06T11:28:46;6.97;;;5.65;;
32200;SDS011;18701;45.588;5.288;2023-01-06T11:33:57;7.80;;;5.00;;
32200;SDS011;18701;45.588;5.288;2023-01-06T11:36:26;6.22;;;4.32;;
32200;SDS011;18701;45.588;5.288;2023-01-06T11:38:59;13.60;;;5.30;;
32200;SDS011;18701;45.588;5.288;2023-01-06T11:41:31;7.40;;;4.40;;
32200;SDS011;18701;45.588;5.288;2023-01-06T11:44:35;4.38;;;3.92;;
32200;SDS011;18701;45.588;5.288;2023-01-06T11:46:59;5.82;;;4.45;;
32200;SDS011;18701;45.588;5.288;2023-01-06T11:52:04;4.40;;;3.63;;
32200;SDS011;18701;45.588;5.288;2023-01-06T11:57:08;4.88;;;3.50;;
32200;SDS011;18701;45.588;5.288;2023-01-06T12:05:34;4.25;;;3.72;;
32200;SDS011;18701;45.588;5.288;2023-01-06T12:08:01;6.88;;;3.28;;
32200;SDS011;18701;45.588;5.288;2023-01-06T12:10:34;3.63;;;2.67;;
32200;SDS011;18701;45.588;5.288;2023-01-06T12:13:01;5.57;;;3.20;;
32200;SDS011;18701;45.588;5.288;2023-01-06T12:15:28;6.80;;;3.08;;
32200;SDS011;18701;45.588;5.288;2023-01-06T12:18:06;3.35;;;2.88;;
32200;SDS011;18701;45.588;5.288;2023-01-06T12:20:38;6.63;;;2.85;;
32200;SDS011;18701;45.588;5.288;2023-01-06T12:23:17;7.65;;;3.13;;
32200;SDS011;18701;45.588;5.288;2023-01-06T12:25:47;3.45;;;3.15;;
32200;SDS011;18701;45.588;5.288;2023-01-06T12:28:15;5.10;;;3.03;;
32200;SDS011;18701;45.588;5.288;2023-01-06T12:30:47;4.70;;;3.40;;
32200;SDS011;18701;45.588;5.288;2023-01-06T12:36:14;7.18;;;2.65;;
32200;SDS011;18701;45.588;5.288;2023-01-06T12:44:11;5.95;;;3.10;;
32200;SDS011;18701;45.588;5.288;2023-01-06T12:46:58;3.05;;;2.78;;
32200;SDS011;18701;45.588;5.288;2023-01-06T12:54:57;3.35;;;2.60;;
32200;SDS011;18701;45.588;5.288;2023-01-06T12:57:28;5.05;;;3.25;;
32200;SDS011;18701;45.588;5.288;2023-01-06T13:00:27;7.32;;;3.28;;
32200;SDS011;18701;45.588;5.288;2023-01-06T13:05:59;4.72;;;2.75;;
32200;SDS011;18701;45.588;5.288;2023-01-06T13:14:06;3.50;;;2.92;;
32200;SDS011;18701;45.588;5.288;2023-01-06T13:22:03;4.57;;;2.67;;
32200;SDS011;18701;45.588;5.288;2023-01-06T13:24:54;11.00;;;2.90;;
32200;SDS011;18701;45.588;5.288;2023-01-06T13:41:26;2.30;;;1.55;;
32200;SDS011;18701;45.588;5.288;2023-01-06T13:43:57;4.05;;;2.00;;
32200;SDS011;18701;45.588;5.288;2023-01-06T13:46:25;5.05;;;1.80;;
32200;SDS011;18701;45.588;5.288;2023-01-06T13:48:53;3.50;;;1.98;;
32200;SDS011;18701;45.588;5.288;2023-01-06T13:51:24;3.55;;;1.60;;
32200;SDS011;18701;45.588;5.288;2023-01-06T13:53:53;5.60;;;2.17;;
32200;SDS011;18701;45.588;5.288;2023-01-06T13:58:46;3.58;;;1.77;;
32200;SDS011;18701;45.588;5.288;2023-01-06T14:03:48;2.63;;;1.92;;
32200;SDS011;18701;45.588;5.288;2023-01-06T14:08:50;4.25;;;2.58;;
32200;SDS011;18701;45.588;5.288;2023-01-06T14:11:24;3.20;;;2.20;;
32200;SDS011;18701;45.588;5.288;2023-01-06T14:13:57;6.78;;;2.25;;
32200;SDS011;18701;45.588;5.288;2023-01-06T14:16:44;3.08;;;2.20;;
32200;SDS011;18701;45.588;5.288;2023-01-06T14:21:53;2.88;;;2.22;;
32200;SDS011;18701;45.588;5.288;2023-01-06T14:24:36;2.97;;;1.38;;
32200;SDS011;18701;45.588;5.288;2023-01-06T14:27:09;3.13;;;2.00;;
32200;SDS011;18701;45.588;5.288;2023-01-06T14:32:08;2.15;;;1.00;;
32200;SDS011;18701;45.588;5.288;2023-01-06T14:34:36;6.30;;;1.48;;
32200;SDS011;18701;45.588;5.288;2023-01-06T14:37:09;5.13;;;1.30;;
32200;SDS011;18701;45.588;5.288;2023-01-06T14:39:37;2.10;;;1.08;;
32200;SDS011;18701;45.588;5.288;2023-01-06T14:42:07;3.38;;;1.50;;
32200;SDS011;18701;45.588;5.288;2023-01-06T14:44:49;2.03;;;1.48;;
32200;SDS011;18701;45.588;5.288;2023-01-06T14:47:20;3.75;;;1.50;;
32200;SDS011;18701;45.588;5.288;2023-01-06T14:50:06;2.63;;;1.65;;
32200;SDS011;18701;45.588;5.288;2023-01-06T14:52:40;3.95;;;2.15;;
32200;SDS011;18701;45.588;5.288;2023-01-06T14:55:16;3.00;;;2.38;;
32200;SDS011;18701;45.588;5.288;2023-01-06T14:57:44;4.07;;;2.45;;
32200;SDS011;18701;45.588;5.288;2023-01-06T15:02:45;2.75;;;2.30;;
32200;SDS011;18701;45.588;5.288;2023-01-06T15:05:18;4.40;;;2.63;;
32200;SDS011;18701;45.588;5.288;2023-01-06T15:12:52;6.20;;;2.80;;
32200;SDS011;18701;45.588;5.288;2023-01-06T15:15:20;3.78;;;2.65;;
32200;SDS011;18701;45.588;5.288;2023-01-06T15:17:51;4.30;;;2.83;;
32200;SDS011;18701;45.588;5.288;2023-01-06T15:20:18;6.28;;;2.88;;
32200;SDS011;18701;45.588;5.288;2023-01-06T15:22:46;3.60;;;2.35;;
32200;SDS011;18701;45.588;5.288;2023-01-06T15:25:17;4.88;;;2.65;;
32200;SDS011;18701;45.588;5.288;2023-01-06T15:27:46;5.22;;;3.05;;
32200;SDS011;18701;45.588;5.288;2023-01-06T15:30:15;3.00;;;2.35;;
32200;SDS011;18701;45.588;5.288;2023-01-06T15:32:43;3.55;;;2.53;;
32200;SDS011;18701;45.588;5.288;2023-01-06T15:35:11;4.40;;;2.67;;
32200;SDS011;18701;45.588;5.288;2023-01-06T15:37:41;3.63;;;1.90;;
32200;SDS011;18701;45.588;5.288;2023-01-06T15:40:10;2.58;;;2.05;;
32200;SDS011;18701;45.588;5.288;2023-01-06T15:42:42;5.83;;;3.03;;
32200;SDS011;18701;45.588;5.288;2023-01-06T15:45:20;4.72;;;1.90;;
32200;SDS011;18701;45.588;5.288;2023-01-06T15:47:56;1.92;;;1.75;;
32200;SDS011;18701;45.588;5.288;2023-01-06T15:50:27;2.90;;;1.58;;
32200;SDS011;18701;45.588;5.288;2023-01-06T15:52:59;4.50;;;1.80;;
32200;SDS011;18701;45.588;5.288;2023-01-06T15:55:34;2.03;;;1.15;;
32200;SDS011;18701;45.588;5.288;2023-01-06T16:00:32;2.85;;;1.67;;
32200;SDS011;18701;45.588;5.288;2023-01-06T16:06:06;3.40;;;1.80;;
32200;SDS011;18701;45.588;5.288;2023-01-06T16:08:32;2.83;;;2.15;;
32200;SDS011;18701;45.588;5.288;2023-01-06T16:18:38;4.55;;;2.05;;
32200;SDS011;18701;45.588;5.288;2023-01-06T16:23:50;6.80;;;3.17;;
32200;SDS011;18701;45.588;5.288;2023-01-06T16:26:22;7.43;;;3.95;;
32200;SDS011;18701;45.588;5.288;2023-01-06T16:28:51;8.65;;;4.45;;
32200;SDS011;18701;45.588;5.288;2023-01-06T16:31:28;12.48;;;5.57;;
32200;SDS011;18701;45.588;5.288;2023-01-06T16:33:55;11.95;;;5.43;;
32200;SDS011;18701;45.588;5.288;2023-01-06T16:36:38;7.93;;;4.35;;
32200;SDS011;18701;45.588;5.288;2023-01-06T16:39:03;6.47;;;4.15;;
32200;SDS011;18701;45.588;5.288;2023-01-06T16:41:30;7.43;;;4.20;;
32200;SDS011;18701;45.588;5.288;2023-01-06T16:43:56;6.78;;;3.65;;
32200;SDS011;18701;45.588;5.288;2023-01-06T16:46:22;8.73;;;4.47;;
32200;SDS011;18701;45.588;5.288;2023-01-06T16:48:52;5.63;;;3.55;;
32200;SDS011;18701;45.588;5.288;2023-01-06T16:51:19;4.90;;;3.67;;
32200;SDS011;18701;45.588;5.288;2023-01-06T16:53:45;8.43;;;4.00;;
32200;SDS011;18701;45.588;5.288;2023-01-06T16:56:21;4.82;;;4.03;;
32200;SDS011;18701;45.588;5.288;2023-01-06T16:58:50;6.85;;;4.03;;
32200;SDS011;18701;45.588;5.288;2023-01-06T17:01:19;10.50;;;4.80;;
32200;SDS011;18701;45.588;5.288;2023-01-06T17:03:49;13.98;;;7.15;;
32200;SDS011;18701;45.588;5.288;2023-01-06T17:06:23;10.77;;;6.85;;
32200;SDS011;18701;45.588;5.288;2023-01-06T17:08:53;11.15;;;6.10;;
32200;SDS011;18701;45.588;5.288;2023-01-06T17:11:21;12.55;;;6.15;;
32200;SDS011;18701;45.588;5.288;2023-01-06T17:13:52;10.07;;;6.35;;
32200;SDS011;18701;45.588;5.288;2023-01-06T17:16:21;10.35;;;6.53;;
32200;SDS011;18701;45.588;5.288;2023-01-06T17:18:52;17.35;;;6.20;;
32200;SDS011;18701;45.588;5.288;2023-01-06T17:21:24;10.15;;;5.80;;
32200;SDS011;18701;45.588;5.288;2023-01-06T17:24:13;11.02;;;5.32;;
32200;SDS011;18701;45.588;5.288;2023-01-06T17:26:42;10.48;;;5.35;;
32200;SDS011;18701;45.588;5.288;2023-01-06T17:29:17;7.60;;;5.20;;
32200;SDS011;18701;45.588;5.288;2023-01-06T17:31:45;13.10;;;5.53;;
32200;SDS011;18701;45.588;5.288;2023-01-06T17:34:28;10.43;;;4.82;;
32200;SDS011;18701;45.588;5.288;2023-01-06T17:36:56;13.50;;;6.10;;